Ray, Illinois
Current Conditions -  °F | °C
As of 2:15 PM on Thursday 18 Dec 2014 (Local Time) from KMQB Reporting Station
Overcast Overcast  
Wind Chill: 28°   Ceiling: 6000
Heat Index: 28°   Visibility: 10mi
Dew Point: 22°   Wind: 0mph
Humidity: 78%   Direction: NA
Pressure: 30.26"   Gusts: NA
Location:  40.1451°N, 90.5648°W
Report Text: KMQB 182015Z AUTO 00000KT 10SM SCT047 OVC060 M02/M06 A3026 RMK AO2 T10241057
Loading
Personal Weather Stations






























Interactive Weather Map New forecast layout! Learn more

10-Day Weather Forecast

Advertisements
Track Severe Weather on mobile